Princeton, North Carolina
Current Conditions -  °F | °C
As of 1:15 PM on Tuesday 21 Oct 2014 (Local Time) from KGWW Reporting Station
Clear Clear  
Wind Chill: 72°   Ceiling: Unl
Heat Index: 72°   Visibility: 10mi
Dew Point: 53°   Wind: 3mph
Humidity: 50%   Direction: 300°WNW
Pressure: 29.87"   Gusts: NA
Location:  35.47°N, 78.16°W
Report Text: KGWW 211715Z AUTO 30003KT 10SM CLR 22/11 A2987 RMK AO2 T02220114
Loading
Personal Weather Stations






























Interactive Weather Map
Tropical Storm Tracking
New forecast layout! Learn more

10-Day Weather Forecast

Advertisements
Track Severe Weather on mobile